Metar Cercanos

 

LEPA - Palma De Mallorc, Spain
Distance from station: ONO 38km
Actualización: 20/08/2018 18:30
Few Clouds
Few Clouds
 Viento del SSO
Viento: SSO 17 km/h
Temperatura: 31°C
Indice Calor: 33°C
Rocío: 20°C
Humedad: 52%
Barómetro: 1016 hPa
Clouds: Few Clouds
Visibility: 10 km
Cloud details: Few Clouds 762 m
2018/08/20 16:30 LEPA 201630Z 21009KT 180V240 9999 FEW025 31/20 Q1016 NOSIG
LEMH - Mahon/Menorca Is, Spain
Distance from station: ENE 105km
Actualización: 20/08/2018 18:30
Despejado
Despejado
 Viento del N
Viento: N 26 km/h
Temperatura: 28°C
Indice Calor: 28°C
Rocío: 15°C
Humedad: 45%
Barómetro: 1016 hPa
Resumen: Despejado
Visibility: greater than 10 km
2018/08/20 16:30 LEMH 201630Z 01014KT CAVOK 28/15 Q1016
 
LEIB - Ibiza/Es Codola, Spain
Distance from station: OSO 165km
Actualización: 20/08/2018 18:30
Few Clouds
Few Clouds
 Viento del SSO
Viento: SSO 11 km/h
Temperatura: 30°C
Indice Calor: 31°C
Rocío: 18°C
Humedad: 49%
Barómetro: 1016 hPa
Clouds: Few Clouds
Visibility: 10 km
Cloud details: Few Clouds 1372 m
2018/08/20 16:30 LEIB 201630Z 21006KT 180V240 9999 FEW045 30/18 Q1016 NOSIG
LEBL - Barcelona Airpor, Spain
Distance from station: NNO 225km
Actualización: 20/08/2018 18:30
Despejado
Despejado
 Viento del ESE
Viento: ESE 13 km/h
Temperatura: 28°C
Indice Calor: 30°C
Rocío: 22°C
Humedad: 70%
Barómetro: 1016 hPa
Resumen: Despejado
Visibility: greater than 10 km
2018/08/20 16:30 LEBL 201630Z 11007KT 080V150 CAVOK 28/22 Q1016 NOSIG
 
LEVC - Valencia (civ/Mi, Spain
Distance from station: NO 188km
Actualización: 20/08/2018 18:30
Few Clouds
Few Clouds
 Viento del SE
Viento: SE 22 km/h
Temperatura: 31°C
Rocío: 14°C
Humedad: 35%
Barómetro: 1016 hPa
Clouds: Few Clouds
Visibility: 10 km
Cloud details: Few Clouds 762 m
2018/08/20 16:30 LEVC 201630Z 14012KT 110V170 9999 FEW025 31/14 Q1016 NOSIG
LEGE - Gerona/Costa Bra, Spain
Distance from station: N 276km
Actualización: 20/08/2018 18:30
Despejado
Despejado
 Viento del SSO
Viento: SSO 17 km/h
Temperatura: 29°C
Indice Calor: 29°C
Rocío: 15°C
Humedad: 43%
Barómetro: 1016 hPa
Resumen: Despejado
Visibility: greater than 10 km
2018/08/20 16:30 LEGE 201630Z 21009KT 160V250 CAVOK 29/15 Q1016
 
LEAL - Alicante/El Alte, Spain
Distance from station: OSO 344km
Actualización: 20/08/2018 18:30
Despejado
Despejado
 Viento del E
Viento: E 13 km/h
Temperatura: 29°C
Indice Calor: 29°C
Rocío: 18°C
Humedad: 51%
Barómetro: 1017 hPa
Resumen: Despejado
Visibility: greater than 10 km
2018/08/20 16:30 LEAL 201630Z 10007KT 070V160 CAVOK 29/18 Q1017 NOSIG
LEAM - Almeria Airport, Spain
Distance from station: SSO 56km
Actualización: 20/08/2018 18:30
Few Clouds
Few Clouds
 Viento del E
Viento: E 31 km/h
Temperatura: 31°C
Indice Calor: 33°C
Rocío: 20°C
Humedad: 52%
Barómetro: 1015 hPa
Clouds: Few Clouds
Visibility: 10 km
Cloud details: Few Clouds 762 m
2018/08/20 16:30 LEAM 201630Z 08017KT 050V120 9999 FEW025 31/20 Q1015
 
LEZG - Zaragoza (mil/Ci, Spain
Distance from station: NO 431km
Actualización: 20/08/2018 18:30
Despejado
Despejado
 Viento del NO
Viento: NO 13 km/h
Temperatura: 31°C
Rocío: 8°C
Humedad: 24%
Barómetro: 1016 hPa
Resumen: Despejado
Visibility: greater than 10 km
2018/08/20 16:30 LEZG 201630Z 31007KT 270V350 CAVOK 31/08 Q1016
LEMD - Madrid/Barajas, Spain
Distance from station: ONO 234km
Actualización: 20/08/2018 18:30
Despejado
Despejado
 Viento del SSE
Viento: SSE 13 km/h
Temperatura: 33°C
Rocío: 7°C
Humedad: 20%
Barómetro: 1017 hPa
Resumen: Despejado
Visibility: greater than 10 km
2018/08/20 16:30 LEMD 201630Z 15007KT 110V210 CAVOK 33/07 Q1017 NOSIG
 
LEGR - Granada Airport, Spain
Distance from station: OSO 62km
Actualización: 20/08/2018 18:30
Few Clouds
Few Clouds
 Viento del SO
Viento: SO 17 km/h
Temperatura: 31°C
Rocío: 15°C
Humedad: 38%
Barómetro: 1016 hPa
Clouds: Few Clouds
Visibility: 10 km
Cloud details: Few Clouds 1524 m
2018/08/20 16:30 LEGR 201630Z 23009KT 200V260 9999 FEW050TCU 31/15 Q1016
LEMG - Malaga (civ/Mil), Spain
Distance from station: OSO 227km
Actualización: 20/08/2018 18:30
Few Clouds
Few Clouds
 Viento del ESE
Viento: ESE 15 km/h
Temperatura: 27°C
Indice Calor: 29°C
Rocío: 21°C
Humedad: 70%
Barómetro: 1016 hPa
Clouds: Few Clouds
Visibility: 10 km
Cloud details: Few Clouds 762 m
2018/08/20 16:30 LEMG 201630Z 12008KT 090V160 9999 FEW025 27/21 Q1016 NOSIG
 
LEZL - Sevilla (civ/Mil, Spain
Distance from station: S 318km
Actualización: 20/08/2018 18:30
Despejado
Despejado
 Viento del E
Viento: E 11 km/h
Temperatura: 36°C
Rocío: 12°C
Humedad: 23%
Barómetro: 1012 hPa
Resumen: Despejado
Visibility: greater than 10 km
2018/08/20 16:30 LEZL 201630Z 08006KT 020V120 CAVOK 36/12 Q1012 NOSIG
LEVT - Vitoria, Spain
Distance from station: NO 226km
Actualización: 20/08/2018 18:30
Few Clouds
Few Clouds
 Viento del N
Viento: N 24 km/h
Temperatura: 24°C
Rocío: 15°C
Humedad: 57%
Barómetro: 1021 hPa
Clouds: Few Clouds
Visibility: 10 km
Cloud details: Few Clouds 1067 m
2018/08/20 16:30 LEVT 201630Z 01013KT 330V050 9999 FEW035 24/15 Q1021
 
LEBB - Bilbao/Sondica, Spain
Distance from station: NNO 235km
Actualización: 20/08/2018 18:30
Few Clouds
Few Clouds
 Viento del NNO
Viento: NNO 11 km/h
Temperatura: 25°C
Rocío: 16°C
Humedad: 57%
Barómetro: 1021 hPa
Clouds: Few Clouds
Visibility: 10 km
Cloud details: Few Clouds 914 m
2018/08/20 16:30 LEBB 201630Z 34006KT 280V030 9999 FEW030 25/16 Q1021 NOSIG
LESO - San Sebastian/Fu, Spain
Distance from station: N 231km
Actualización: 20/08/2018 18:30
Few Clouds
Few Clouds
 Viento del NNE
Viento: NNE 11 km/h
Temperatura: 24°C
Rocío: 19°C
Humedad: 74%
Barómetro: 1021 hPa
Clouds: Few Clouds
Visibility: 10 km
Cloud details: Few Clouds 732 m
2018/08/20 16:30 LESO 201630Z 03006KT 340V060 9999 FEW024 24/19 Q1021
 
LEVD - Valladolid(Mil/C, Spain
Distance from station: ONO 239km
Actualización: 20/08/2018 18:30
Despejado
Despejado
 Viento del ENE
Viento: ENE 15 km/h
Temperatura: 29°C
Rocío: 7°C
Humedad: 25%
Barómetro: 1020 hPa
Resumen: Despejado
Visibility: greater than 10 km
2018/08/20 16:30 LEVD 201630Z 07008KT 030V110 CAVOK 29/07 Q1020
LESA - Salamanca (civ/M, Spain
Distance from station: ONO 349km
Actualización: 20/08/2018 18:30
Few Clouds
Few Clouds
 Viento del ENE
Viento: ENE 7 km/h
Temperatura: 31°C
Rocío: 6°C
Humedad: 21%
Barómetro: 1019 hPa
Clouds: Few Clouds
Visibility: 10 km
Cloud details: Few Clouds 1067 m
2018/08/20 16:30 LESA 201630Z 07004KT 330V140 9999 FEW035 31/06 Q1019
 
LEXJ - Santander/Paraya, Spain
Distance from station: NNO 247km
Actualización: 20/08/2018 18:30
Despejado
Despejado
 Viento del NE
Viento: NE 15 km/h
Temperatura: 23°C
Rocío: 19°C
Humedad: 78%
Barómetro: 1021 hPa
Resumen: Despejado
Visibility: greater than 10 km
2018/08/20 16:30 LEXJ 201630Z 05008KT 340V100 CAVOK 23/19 Q1021
LEAS - Asturias/Aviles, Spain
Distance from station: NO 214km
Actualización: 20/08/2018 18:30
Few Clouds
Few Clouds
 Viento del E
Viento: E 17 km/h
Temperatura: 23°C
Rocío: 18°C
Humedad: 74%
Barómetro: 1021 hPa
Clouds: Few Clouds
Visibility: 10 km
Cloud details: Few Clouds 610 m
2018/08/20 16:30 LEAS 201630Z 09009KT 050V120 9999 FEW020 23/18 Q1021 NOSIG
 
LECO - La Coruna/Alvedr, Spain
Distance from station: ONO 222km
Actualización: 20/08/2018 18:30
Despejado
Despejado
 Viento del N
Viento: N 13 km/h
Temperatura: 27°C
Indice Calor: 28°C
Rocío: 18°C
Humedad: 58%
Barómetro: 1018 hPa
Resumen: Despejado
Visibility: greater than 10 km
2018/08/20 16:30 LECO 201630Z 36007KT 320V060 CAVOK 27/18 Q1018 NOSIG
LEVX - Vigo/Peinador, Spain
Distance from station: O 214km
Actualización: 20/08/2018 18:30
Despejado
Despejado
 Viento del ONO
Viento: ONO 11 km/h
Temperatura: 34°C
Rocío: 15°C
Humedad: 32%
Barómetro: 1016 hPa
Resumen: Despejado
Visibility: greater than 10 km
2018/08/20 16:30 LEVX 201630Z 29006KT 250V340 CAVOK 34/15 Q1016 NOSIG